Time;durP1;ratioP1;P1;durP2;ratioP2;P2;SDS_P1;SDS_P2;PMS_P1;PMS_P2;Temp;Humidity;BMP_temperature;BMP_pressure;BME280_temperature;BME280_humidity;BME280_pressure;Samples;Min_cycle;Max_cycle;Signal;HPM_P1;HPM_P2
2022/07/30 00:01:13;;;;;;;29.45;26.20;;;23.40;12.80;;;;;;5112574;28;20038;-56
2022/07/30 00:03:38;;;;;;;30.45;26.67;;;23.50;12.50;;;;;;5113553;28;20470;-54
2022/07/30 00:06:04;;;;;;;29.38;25.65;;;23.40;11.40;;;;;;5108742;28;20051;-56
2022/07/30 00:08:30;;;;;;;29.65;25.38;;;23.40;12.70;;;;;;5110623;28;20020;-57
2022/07/30 00:10:55;;;;;;;33.85;28.23;;;23.40;12.20;;;;;;5112979;28;20496;-53
2022/07/30 00:13:21;;;;;;;32.33;27.10;;;23.40;12.40;;;;;;5106915;28;20080;-57
2022/07/30 00:15:47;;;;;;;31.70;27.50;;;23.50;12.40;;;;;;5112854;28;20361;-57
2022/07/30 00:18:12;;;;;;;32.05;27.65;;;23.40;12.20;;;;;;5112433;28;20088;-55
2022/07/30 00:20:39;;;;;;;31.45;27.20;;;23.40;12.00;;;;;;5112748;28;20016;-57
2022/07/30 00:23:05;;;;;;;36.38;29.33;;;23.50;11.70;;;;;;5102155;28;20043;-56
2022/07/30 00:25:31;;;;;;;34.15;28.05;;;23.50;11.50;;;;;;5092300;28;20043;-56
2022/07/30 00:27:57;;;;;;;31.45;27.88;;;23.40;11.10;;;;;;5098685;28;20032;-55
2022/07/30 00:30:23;;;;;;;33.30;26.98;;;23.40;11.90;;;;;;5105953;28;20023;-57
2022/07/30 00:32:49;;;;;;;31.88;27.67;;;23.40;10.80;;;;;;5111928;28;20112;-56
2022/07/30 00:35:15;;;;;;;28.77;25.63;;;23.30;11.80;;;;;;5093719;28;20066;-52
2022/07/30 00:37:40;;;;;;;27.83;24.77;;;23.40;11.40;;;;;;5111068;28;20076;-56
2022/07/30 00:40:08;;;;;;;28.52;24.20;;;23.20;11.30;;;;;;5112509;28;20047;-54
2022/07/30 00:42:44;;;;;;;26.77;23.80;;;23.20;10.20;;;;;;5111535;28;20054;-54
2022/07/30 00:45:11;;;;;;;29.75;25.25;;;23.00;2.80;;;;;;5112580;28;20023;-55
2022/07/30 00:47:37;;;;;;;27.75;24.00;;;23.10;11.00;;;;;;5111718;28;20039;-55
2022/07/30 00:50:06;;;;;;;31.02;24.83;;;23.00;11.00;;;;;;5094078;28;20488;-55
2022/07/30 00:52:33;;;;;;;30.98;24.95;;;22.90;9.70;;;;;;5111840;28;20042;-53
2022/07/30 00:54:59;;;;;;;35.45;26.08;;;23.00;10.10;;;;;;5094187;28;20027;-51
2022/07/30 00:57:26;;;;;;;30.00;24.13;;;22.90;10.90;;;;;;5111657;28;20114;-53
2022/07/30 00:59:52;;;;;;;30.90;24.80;;;22.80;10.50;;;;;;5112255;28;20055;-57
2022/07/30 01:02:18;;;;;;;28.67;24.20;;;22.80;10.10;;;;;;5111270;28;20097;-56
2022/07/30 01:04:44;;;;;;;29.85;25.10;;;22.80;10.90;;;;;;5111346;28;20035;-54
2022/07/30 01:07:10;;;;;;;30.67;22.02;;;22.80;10.80;;;;;;5110741;28;20050;-56
2022/07/30 01:09:37;;;;;;;28.10;23.40;;;22.90;11.40;;;;;;5110565;28;20059;-51
2022/07/30 01:12:05;;;;;;;28.98;24.25;;;22.90;8.60;;;;;;5111139;28;20040;-56
2022/07/30 01:14:33;;;;;;;27.90;22.60;;;22.80;11.20;;;;;;5112271;28;20020;-52
2022/07/30 01:16:59;;;;;;;27.25;22.30;;;22.90;10.70;;;;;;5110541;28;20035;-56
2022/07/30 01:22:24;;;;;;;28.05;22.58;;;22.80;7.70;;;;;;5097567;28;20101;-56
2022/07/30 01:25:14;;;;;;;23.88;21.38;;;22.80;9.40;;;;;;5111466;28;20136;-57
2022/07/30 01:28:01;;;;;;;29.23;23.60;;;22.80;4.60;;;;;;5110802;28;20044;-55
2022/07/30 01:30:29;;;;;;;26.63;22.02;;;22.80;1.00;;;;;;5098426;28;20035;-54
2022/07/30 01:32:57;;;;;;;27.33;22.98;;;22.70;7.50;;;;;;5110689;28;20032;-56
2022/07/30 01:35:25;;;;;;;24.80;22.10;;;22.90;10.20;;;;;;5110179;28;20034;-56
2022/07/30 01:37:53;;;;;;;22.90;20.60;;;23.00;9.50;;;;;;5110657;28;20144;-54
2022/07/30 01:40:19;;;;;;;25.58;20.65;;;22.80;8.60;;;;;;5111910;28;20055;-53
2022/07/30 01:42:53;;;;;;;24.23;20.48;;;22.80;10.30;;;;;;5110569;28;20184;-57
2022/07/30 01:45:23;;;;;;;21.90;19.65;;;22.80;2.10;;;;;;5111976;28;20055;-56
2022/07/30 01:47:51;;;;;;;20.30;18.15;;;22.90;9.10;;;;;;5111155;28;20031;-57
2022/07/30 01:50:20;;;;;;;20.13;18.05;;;22.90;9.80;;;;;;5111886;28;20020;-56
2022/07/30 01:52:49;;;;;;;19.70;17.60;;;22.90;1.00;;;;;;5111224;28;20089;-57
2022/07/30 01:55:20;;;;;;;20.55;16.92;;;22.70;4.10;;;;;;5112428;28;20381;-53
2022/07/30 01:57:47;;;;;;;15.77;14.18;;;22.80;4.90;;;;;;5100548;28;20482;-57
2022/07/30 02:00:13;;;;;;;17.25;15.45;;;22.70;9.90;;;;;;5111072;28;20023;-55
2022/07/30 02:02:40;;;;;;;15.40;13.88;;;22.90;1.00;;;;;;5110117;28;20499;-56
2022/07/30 02:05:06;;;;;;;17.30;15.50;;;22.90;9.40;;;;;;5110365;28;20107;-56
2022/07/30 02:07:38;;;;;;;15.48;13.88;;;22.90;8.80;;;;;;5109983;28;20487;-53
2022/07/30 02:10:17;;;;;;;15.60;13.93;;;22.90;1.00;;;;;;5114580;28;20023;-58
2022/07/30 02:12:52;;;;;;;15.82;14.20;;;22.80;1.00;;;;;;5114721;28;20046;-55
2022/07/30 02:15:27;;;;;;;15.57;13.95;;;22.70;1.10;;;;;;5115718;28;20064;-56
2022/07/30 02:18:11;;;;;;;15.93;14.32;;;22.70;4.40;;;;;;5114564;28;20031;-57
2022/07/30 02:20:37;;;;;;;15.47;14.03;;;22.70;1.00;;;;;;5115455;28;20023;-54
2022/07/30 02:23:10;;;;;;;14.90;13.35;;;22.80;8.20;;;;;;5104968;28;20316;-57
2022/07/30 02:25:40;;;;;;;14.85;13.35;;;22.80;3.10;;;;;;5096268;28;20028;-53
2022/07/30 02:28:10;;;;;;;16.08;13.80;;;22.80;4.60;;;;;;5113497;28;20054;-57
2022/07/30 02:30:39;;;;;;;16.55;14.82;;;22.80;6.40;;;;;;5096626;28;20047;-56
2022/07/30 02:33:09;;;;;;;17.13;15.13;;;22.80;6.90;;;;;;5114364;28;20078;-54
2022/07/30 02:35:36;;;;;;;16.55;14.90;;;22.70;6.70;;;;;;5099957;28;20021;-56
2022/07/30 02:38:04;;;;;;;19.10;17.08;;;22.90;8.00;;;;;;5114221;28;20039;-59
2022/07/30 02:40:30;;;;;;;19.17;15.80;;;22.90;8.30;;;;;;5114919;28;20031;-58
2022/07/30 02:42:57;;;;;;;19.45;17.52;;;22.90;8.10;;;;;;5114091;28;20048;-57
2022/07/30 02:45:24;;;;;;;18.45;16.65;;;22.90;7.70;;;;;;5114945;28;20461;-58
2022/07/30 02:47:53;;;;;;;16.75;15.00;;;22.90;7.50;;;;;;5113901;28;20039;-58
2022/07/30 02:50:20;;;;;;;15.90;14.45;;;22.90;6.00;;;;;;5114798;28;20019;-56
2022/07/30 02:52:47;;;;;;;16.58;15.02;;;22.80;5.90;;;;;;5113789;28;20071;-57
2022/07/30 02:55:16;;;;;;;18.60;15.65;;;22.90;4.80;;;;;;5114881;28;20015;-57
2022/07/30 02:57:43;;;;;;;17.67;15.90;;;22.90;6.10;;;;;;5113618;28;20027;-56
2022/07/30 03:00:09;;;;;;;19.23;16.80;;;22.90;7.30;;;;;;5096192;28;20365;-57
2022/07/30 03:02:35;;;;;;;15.20;13.70;;;23.00;7.30;;;;;;5113703;28;20085;-57
2022/07/30 03:05:04;;;;;;;15.73;14.15;;;22.90;7.30;;;;;;5112899;28;20023;-57
2022/07/30 03:07:30;;;;;;;16.90;15.05;;;22.80;6.80;;;;;;5113648;28;20039;-58
2022/07/30 03:09:58;;;;;;;16.38;14.73;;;22.80;6.70;;;;;;5114394;28;20020;-57
2022/07/30 03:12:27;;;;;;;18.08;16.15;;;22.90;6.90;;;;;;5113477;28;20049;-55
2022/07/30 03:14:54;;;;;;;18.38;16.48;;;22.90;6.80;;;;;;5114280;28;20027;-57
2022/07/30 03:17:22;;;;;;;20.10;18.00;;;22.80;7.10;;;;;;5113236;28;20477;-56
2022/07/30 03:19:49;;;;;;;18.60;16.73;;;22.80;6.30;;;;;;5113664;28;20024;-56
2022/07/30 03:22:17;;;;;;;22.00;18.38;;;22.80;6.90;;;;;;5112098;28;20047;-57
2022/07/30 03:24:44;;;;;;;19.42;17.42;;;22.80;5.00;;;;;;5101461;28;20023;-55
2022/07/30 03:27:12;;;;;;;18.80;16.83;;;22.90;6.50;;;;;;5113415;28;20051;-55
2022/07/30 03:29:38;;;;;;;20.52;17.83;;;22.80;7.00;;;;;;5113780;28;20426;-57
2022/07/30 03:32:05;;;;;;;20.20;16.27;;;22.80;6.80;;;;;;5113859;28;20058;-57
2022/07/30 03:34:34;;;;;;;17.30;14.93;;;22.80;6.60;;;;;;5112607;28;20349;-58
2022/07/30 03:37:04;;;;;;;18.35;15.93;;;22.90;3.10;;;;;;5113776;28;20028;-55
2022/07/30 03:39:33;;;;;;;18.23;16.15;;;22.80;5.90;;;;;;5113146;28;20019;-58
2022/07/30 03:41:59;;;;;;;17.33;15.60;;;22.70;3.20;;;;;;5113551;28;20058;-56
2022/07/30 03:44:25;;;;;;;17.42;15.77;;;22.60;7.30;;;;;;5112602;28;20020;-56
2022/07/30 03:46:52;;;;;;;15.02;13.50;;;22.60;7.10;;;;;;5113043;28;20019;-57
2022/07/30 03:49:20;;;;;;;16.02;14.48;;;22.60;6.30;;;;;;5106089;28;20081;-56
2022/07/30 03:51:46;;;;;;;18.13;16.02;;;22.60;5.40;;;;;;5093172;28;20036;-53
2022/07/30 03:54:12;;;;;;;18.10;15.50;;;22.60;6.80;;;;;;5105281;28;20016;-56
2022/07/30 03:56:38;;;;;;;19.27;15.07;;;22.40;7.80;;;;;;5110800;28;20035;-56
2022/07/30 03:59:04;;;;;;;17.40;15.60;;;22.50;7.50;;;;;;5107696;28;20020;-55
2022/07/30 04:01:30;;;;;;;20.08;17.10;;;22.60;7.00;;;;;;5113326;28;20032;-55
2022/07/30 04:04:04;;;;;;;15.68;14.00;;;22.70;7.00;;;;;;5111645;28;20065;-52
2022/07/30 04:06:30;;;;;;;18.00;16.20;;;22.70;1.00;;;;;;5113307;28;20031;-53
2022/07/30 04:08:55;;;;;;;17.83;16.05;;;22.70;6.80;;;;;;5112460;28;20031;-52
2022/07/30 04:11:21;;;;;;;17.02;15.35;;;22.80;6.40;;;;;;5112917;28;20050;-52
2022/07/30 04:13:47;;;;;;;17.17;15.40;;;22.80;6.00;;;;;;5112019;28;20023;-51
2022/07/30 04:16:22;;;;;;;16.40;14.68;;;22.80;6.00;;;;;;5113201;28;20077;-55
2022/07/30 04:18:52;;;;;;;24.38;17.88;;;22.80;2.50;;;;;;5103549;28;20027;-51
2022/07/30 04:21:19;;;;;;;19.30;15.93;;;22.80;5.10;;;;;;5109798;28;20028;-55
2022/07/30 04:23:48;;;;;;;19.23;16.75;;;22.80;6.30;;;;;;5111993;28;20490;-56
2022/07/30 04:26:15;;;;;;;20.23;18.20;;;22.80;4.80;;;;;;5094391;28;20498;-56
2022/07/30 04:28:40;;;;;;;20.70;18.50;;;22.80;5.60;;;;;;5112064;28;20035;-56
2022/07/30 04:31:07;;;;;;;16.30;13.80;;;22.80;5.40;;;;;;5112645;28;20031;-54
2022/07/30 04:33:32;;;;;;;15.52;13.93;;;22.70;5.40;;;;;;5111182;28;20417;-56
2022/07/30 04:35:58;;;;;;;17.40;15.40;;;22.70;5.50;;;;;;5112755;28;20053;-51
2022/07/30 04:38:24;;;;;;;17.23;14.07;;;22.70;6.40;;;;;;5112084;28;20425;-55
2022/07/30 04:40:50;;;;;;;15.35;13.75;;;22.70;5.90;;;;;;5112585;28;20113;-53
2022/07/30 04:43:16;;;;;;;14.93;13.35;;;22.60;5.20;;;;;;5111923;28;20047;-55
2022/07/30 04:45:42;;;;;;;12.40;11.15;;;22.60;5.30;;;;;;5112812;28;20492;-56
2022/07/30 04:48:08;;;;;;;13.88;12.48;;;22.60;5.60;;;;;;5111980;28;20127;-57
2022/07/30 04:50:37;;;;;;;13.73;11.45;;;22.50;5.70;;;;;;5112621;28;20457;-55
2022/07/30 04:53:03;;;;;;;12.82;11.10;;;22.60;4.30;;;;;;5107186;28;20039;-51
2022/07/30 04:55:30;;;;;;;12.13;11.02;;;22.60;5.20;;;;;;5108950;28;20028;-54
2022/07/30 04:57:58;;;;;;;12.63;11.48;;;22.70;5.40;;;;;;5107894;28;20035;-54
2022/07/30 05:00:24;;;;;;;15.00;11.35;;;22.70;5.00;;;;;;5112483;28;20028;-54
2022/07/30 05:02:52;;;;;;;12.70;11.45;;;22.80;5.10;;;;;;5108014;28;20433;-55
2022/07/30 05:05:18;;;;;;;14.10;12.65;;;22.80;3.60;;;;;;5111650;28;20481;-55
2022/07/30 05:07:44;;;;;;;14.95;13.45;;;22.80;4.80;;;;;;5111114;28;20038;-54
2022/07/30 05:10:11;;;;;;;15.85;14.23;;;22.90;4.30;;;;;;5112530;28;20028;-56
2022/07/30 05:12:37;;;;;;;16.27;13.52;;;22.90;4.10;;;;;;5111610;28;20044;-56
2022/07/30 05:15:05;;;;;;;15.25;13.15;;;22.90;4.30;;;;;;5112023;28;20015;-56
2022/07/30 05:17:31;;;;;;;15.77;13.57;;;22.90;3.50;;;;;;5111545;28;20051;-55
2022/07/30 05:19:56;;;;;;;15.98;14.27;;;22.90;4.70;;;;;;5112144;28;20066;-54
2022/07/30 05:22:24;;;;;;;16.52;13.30;;;22.90;4.70;;;;;;5111405;28;20675;-52
2022/07/30 05:24:50;;;;;;;14.95;13.35;;;22.90;4.40;;;;;;5112211;28;20077;-54
2022/07/30 05:27:15;;;;;;;14.77;13.07;;;22.90;4.40;;;;;;5092955;28;20031;-54
2022/07/30 05:29:41;;;;;;;17.02;12.48;;;22.90;4.50;;;;;;5112225;28;20015;-57
2022/07/30 05:32:06;;;;;;;15.38;13.77;;;22.90;4.70;;;;;;5110745;28;20051;-56
2022/07/30 05:34:32;;;;;;;11.75;10.65;;;22.80;4.90;;;;;;5111868;28;20107;-54
2022/07/30 05:36:57;;;;;;;13.48;12.07;;;22.80;4.50;;;;;;5112048;28;20383;-58
2022/07/30 05:39:23;;;;;;;13.05;11.38;;;22.80;4.50;;;;;;5111498;28;20023;-56
2022/07/30 05:41:49;;;;;;;11.52;10.30;;;22.60;1.00;;;;;;5111690;28;20070;-57
2022/07/30 05:44:15;;;;;;;10.18;9.13;;;22.70;5.30;;;;;;5112924;28;20016;-57
2022/07/30 05:46:40;;;;;;;8.52;7.72;;;22.80;5.10;;;;;;5115128;28;20051;-57
2022/07/30 05:49:07;;;;;;;7.40;6.70;;;22.90;4.70;;;;;;5115209;28;20051;-57
2022/07/30 05:51:32;;;;;;;7.28;6.57;;;23.00;4.50;;;;;;5115668;28;20038;-57
2022/07/30 05:53:58;;;;;;;8.20;7.38;;;23.10;4.10;;;;;;5114979;28;20401;-57
2022/07/30 05:56:23;;;;;;;8.02;6.60;;;23.10;4.10;;;;;;5115963;28;20038;-57
2022/07/30 05:58:49;;;;;;;7.47;6.70;;;23.10;3.90;;;;;;5115089;28;20138;-55
2022/07/30 06:01:15;;;;;;;9.50;8.48;;;23.20;4.10;;;;;;5115577;28;20016;-56
2022/07/30 06:03:40;;;;;;;8.50;7.70;;;23.10;4.00;;;;;;5114593;28;20026;-57
2022/07/30 06:06:06;;;;;;;8.10;7.10;;;23.10;3.50;;;;;;5115595;28;20473;-57
2022/07/30 06:08:32;;;;;;;8.82;6.60;;;23.20;3.50;;;;;;5114598;28;20028;-58
2022/07/30 06:10:58;;;;;;;7.90;7.03;;;23.20;3.20;;;;;;5096945;28;20023;-56
2022/07/30 06:13:23;;;;;;;7.88;7.07;;;23.20;3.00;;;;;;5114762;28;20023;-57
2022/07/30 06:15:49;;;;;;;8.00;6.90;;;23.20;2.50;;;;;;5114757;28;20472;-57
2022/07/30 06:18:14;;;;;;;9.13;7.53;;;23.10;3.40;;;;;;5114620;28;20046;-55
2022/07/30 06:20:40;;;;;;;9.05;8.15;;;23.00;2.50;;;;;;5115612;28;20440;-54
2022/07/30 06:23:06;;;;;;;9.35;8.18;;;22.90;2.10;;;;;;5114878;28;20050;-57
2022/07/30 06:25:31;;;;;;;8.40;7.60;;;23.00;2.80;;;;;;5115337;28;20107;-56
2022/07/30 06:27:57;;;;;;;9.30;8.23;;;23.10;3.00;;;;;;5082424;28;20111;-57
2022/07/30 06:30:23;;;;;;;8.82;7.93;;;23.20;3.00;;;;;;5115523;28;20110;-56
2022/07/30 06:32:48;;;;;;;10.90;7.60;;;23.30;2.70;;;;;;5114283;28;20058;-57
2022/07/30 06:35:14;;;;;;;8.23;7.43;;;23.20;3.00;;;;;;5115129;28;20089;-58
2022/07/30 06:37:41;;;;;;;9.68;8.68;;;23.30;2.80;;;;;;5114231;28;20378;-56
2022/07/30 06:40:08;;;;;;;10.20;8.90;;;23.30;2.50;;;;;;5114947;28;20028;-53
2022/07/30 06:42:33;;;;;;;9.30;7.47;;;23.30;2.10;;;;;;5112994;28;20047;-57
2022/07/30 06:44:59;;;;;;;10.63;8.52;;;23.40;2.30;;;;;;5114072;28;20031;-56
2022/07/30 06:47:28;;;;;;;9.13;8.23;;;23.40;2.30;;;;;;5114392;28;20059;-57
2022/07/30 06:49:56;;;;;;;11.68;10.52;;;23.40;2.10;;;;;;5112678;28;20034;-56
2022/07/30 06:52:23;;;;;;;12.07;10.88;;;23.40;1.00;;;;;;5114707;28;20476;-57
2022/07/30 06:54:49;;;;;;;14.52;11.57;;;23.50;3.10;;;;;;5113959;28;20348;-58
2022/07/30 06:57:15;;;;;;;14.55;13.15;;;23.50;3.10;;;;;;5095334;28;20092;-56
2022/07/30 06:59:40;;;;;;;12.38;11.00;;;23.50;3.20;;;;;;5113959;28;20020;-56
2022/07/30 07:02:06;;;;;;;14.90;11.55;;;23.60;3.30;;;;;;5114273;28;20032;-57
2022/07/30 07:04:31;;;;;;;13.27;11.85;;;23.50;3.10;;;;;;5113375;28;20019;-56
2022/07/30 07:06:57;;;;;;;12.73;11.48;;;23.60;3.30;;;;;;5096099;28;20537;-57
2022/07/30 07:09:23;;;;;;;9.35;8.52;;;23.60;3.00;;;;;;5114006;28;20015;-57
2022/07/30 07:11:48;;;;;;;11.73;8.63;;;23.60;2.50;;;;;;5113363;28;20468;-58
2022/07/30 07:14:14;;;;;;;10.18;9.10;;;23.60;2.40;;;;;;5100207;28;20036;-58
2022/07/30 07:16:40;;;;;;;10.68;9.57;;;23.60;2.10;;;;;;5097166;28;20036;-58
2022/07/30 07:19:05;;;;;;;11.50;10.27;;;23.60;1.10;;;;;;5106006;28;20015;-57
2022/07/30 07:21:31;;;;;;;10.38;8.73;;;23.60;1.50;;;;;;5114104;28;20124;-56
2022/07/30 07:23:59;;;;;;;11.27;9.20;;;23.60;1.50;;;;;;5113022;28;20126;-57
2022/07/30 07:26:25;;;;;;;9.70;8.80;;;23.70;1.70;;;;;;5114146;28;20108;-52
2022/07/30 07:28:50;;;;;;;10.00;9.00;;;23.70;1.60;;;;;;5112891;28;20019;-56
2022/07/30 07:31:16;;;;;;;10.88;8.20;;;23.70;1.00;;;;;;5095647;28;20074;-53
2022/07/30 07:33:42;;;;;;;7.80;6.72;;;23.80;1.00;;;;;;5104848;28;20085;-57
2022/07/30 07:36:07;;;;;;;7.75;6.97;;;23.80;1.50;;;;;;5113687;28;20061;-55
2022/07/30 07:38:33;;;;;;;7.90;7.15;;;23.90;1.70;;;;;;5113026;28;20022;-54
2022/07/30 07:40:59;;;;;;;8.18;7.18;;;23.80;1.00;;;;;;5113413;28;20093;-56
2022/07/30 07:43:25;;;;;;;10.90;6.55;;;23.90;1.10;;;;;;5112989;28;20027;-57
2022/07/30 07:45:50;;;;;;;6.57;5.97;;;23.90;1.10;;;;;;5112670;28;20038;-56
2022/07/30 07:48:17;;;;;;;6.20;5.47;;;23.80;1.00;;;;;;5112961;28;20028;-57
2022/07/30 07:50:43;;;;;;;8.20;4.82;;;23.90;1.00;;;;;;5113412;28;20465;-52
2022/07/30 07:53:09;;;;;;;7.70;4.95;;;24.00;1.00;;;;;;5112447;28;20023;-60
2022/07/30 07:55:34;;;;;;;5.53;4.28;;;24.00;1.00;;;;;;5113301;28;20506;-58
2022/07/30 07:58:00;;;;;;;5.63;5.00;;;24.00;1.00;;;;;;5113241;28;20114;-58
2022/07/30 08:00:26;;;;;;;4.55;4.00;;;24.00;1.00;;;;;;5113320;28;20371;-56
2022/07/30 08:02:51;;;;;;;4.63;4.18;;;24.10;1.00;;;;;;5094328;28;20016;-59
2022/07/30 08:05:17;;;;;;;4.60;4.20;;;24.10;1.00;;;;;;5103586;28;20032;-58
2022/07/30 08:07:44;;;;;;;4.25;3.85;;;24.10;1.00;;;;;;5112496;28;20015;-59
2022/07/30 08:10:12;;;;;;;5.05;3.40;;;24.20;1.00;;;;;;5112110;28;20035;-59
2022/07/30 08:12:38;;;;;;;3.92;3.53;;;24.20;1.00;;;;;;5112955;28;20123;-60
2022/07/30 08:15:05;;;;;;;6.07;4.80;;;24.20;1.00;;;;;;5111670;28;20103;-56
2022/07/30 08:17:30;;;;;;;5.93;4.15;;;24.20;1.00;;;;;;5113161;28;20039;-47
2022/07/30 08:20:00;;;;;;;11.95;5.50;;;24.30;1.00;;;;;;5106661;28;20161;-56
2022/07/30 08:22:26;;;;;;;5.65;5.07;;;24.20;1.00;;;;;;5106272;28;20417;-51
2022/07/30 08:24:52;;;;;;;5.90;5.32;;;24.30;1.10;;;;;;5111896;28;20049;-54
2022/07/30 08:27:18;;;;;;;6.45;5.70;;;24.00;1.00;;;;;;5112871;28;20398;-51
2022/07/30 08:29:43;;;;;;;4.72;4.28;;;23.90;3.90;;;;;;5111834;28;20446;-49
2022/07/30 08:32:09;;;;;;;6.00;4.97;;;24.00;2.90;;;;;;5112107;28;20036;-54
2022/07/30 08:34:34;;;;;;;5.82;4.18;;;24.10;1.40;;;;;;5111755;28;20047;-51
2022/07/30 08:37:00;;;;;;;5.18;4.68;;;24.20;1.00;;;;;;5111705;28;20031;-54
2022/07/30 08:39:26;;;;;;;6.72;4.78;;;24.30;1.00;;;;;;5111991;28;20055;-51
2022/07/30 08:41:51;;;;;;;5.13;4.60;;;24.40;1.00;;;;;;5111204;28;20541;-54
2022/07/30 08:44:20;;;;;;;7.90;4.03;;;24.40;1.00;;;;;;5111396;28;20031;-52
2022/07/30 08:46:47;;;;;;;6.28;4.10;;;24.70;1.00;;;;;;5112427;28;20078;-50
2022/07/30 08:49:13;;;;;;;4.43;3.95;;;24.70;1.00;;;;;;5111373;28;20031;-53
2022/07/30 08:51:39;;;;;;;3.67;3.38;;;24.90;1.00;;;;;;5111863;28;20405;-48
2022/07/30 08:54:05;;;;;;;5.60;3.40;;;25.00;1.00;;;;;;5111597;28;20030;-49
2022/07/30 08:56:32;;;;;;;4.30;3.90;;;25.10;1.00;;;;;;5112117;28;20035;-49
2022/07/30 08:58:59;;;;;;;6.03;3.55;;;25.20;1.00;;;;;;5111409;28;20027;-52
2022/07/30 09:01:25;;;;;;;3.63;3.08;;;25.30;1.00;;;;;;5112316;28;20080;-48
2022/07/30 09:03:51;;;;;;;3.47;2.88;;;25.40;1.00;;;;;;5110286;28;20479;-48
2022/07/30 09:06:16;;;;;;;3.40;3.20;;;25.60;1.00;;;;;;5111971;28;20039;-48
2022/07/30 09:08:42;;;;;;;3.10;2.90;;;25.60;1.00;;;;;;5108034;28;20067;-53
2022/07/30 09:11:08;;;;;;;4.75;2.78;;;25.60;1.00;;;;;;5110848;28;20389;-48
2022/07/30 09:13:36;;;;;;;3.42;3.17;;;25.70;1.00;;;;;;5099026;28;20435;-49
2022/07/30 09:16:04;;;;;;;6.88;2.97;;;25.60;1.00;;;;;;5111747;28;20048;-46
2022/07/30 09:18:36;;;;;;;3.28;2.97;;;25.70;1.00;;;;;;5111200;28;20016;-52
2022/07/30 09:21:22;;;;;;;4.75;3.03;;;25.70;1.00;;;;;;5114029;28;20051;-48
2022/07/30 09:24:00;;;;;;;4.45;3.33;;;25.70;1.00;;;;;;5107347;28;20095;-52
2022/07/30 09:26:28;;;;;;;3.63;3.30;;;25.80;1.00;;;;;;5115807;28;20102;-52
2022/07/30 09:28:54;;;;;;;5.25;3.67;;;25.90;1.00;;;;;;5096897;28;20388;-52
2022/07/30 09:31:21;;;;;;;3.70;3.33;;;25.90;1.00;;;;;;5115366;28;20511;-53
2022/07/30 09:33:47;;;;;;;3.47;3.20;;;25.80;1.00;;;;;;5101422;28;20597;-48
2022/07/30 09:36:16;;;;;;;5.47;3.72;;;26.00;1.00;;;;;;5113162;28;20027;-48
2022/07/30 09:38:46;;;;;;;5.70;4.28;;;26.00;1.00;;;;;;5115726;28;20030;-49
2022/07/30 09:41:12;;;;;;;4.72;4.32;;;26.00;1.00;;;;;;5114953;28;20072;-50
2022/07/30 09:43:49;;;;;;;4.28;3.75;;;26.00;1.00;;;;;;5115899;28;20067;-47
2022/07/30 09:46:16;;;;;;;4.15;3.63;;;26.00;1.00;;;;;;5114657;28;20361;-49
2022/07/30 09:48:45;;;;;;;3.80;3.35;;;26.10;1.00;;;;;;5115531;28;20088;-49
2022/07/30 09:51:12;;;;;;;4.57;4.28;;;26.20;1.00;;;;;;5113979;28;20426;-48
2022/07/30 09:53:58;;;;;;;3.83;3.10;;;26.10;1.00;;;;;;5115442;28;20027;-52
2022/07/30 09:56:28;;;;;;;3.38;2.90;;;26.20;1.00;;;;;;5114114;28;20381;-54
2022/07/30 09:58:54;;;;;;;4.93;3.80;;;26.30;1.00;;;;;;5115345;28;20087;-54
2022/07/30 10:01:20;;;;;;;4.65;2.80;;;26.50;1.00;;;;;;5114648;28;20027;-52
2022/07/30 10:03:46;;;;;;;3.80;2.53;;;26.40;1.00;;;;;;5115457;28;20423;-49
2022/07/30 10:06:12;;;;;;;4.90;3.22;;;26.50;1.00;;;;;;5115013;28;20020;-49
2022/07/30 10:08:39;;;;;;;3.97;3.60;;;26.50;1.00;;;;;;5115556;28;20069;-48
2022/07/30 10:11:05;;;;;;;3.42;3.10;;;26.40;1.00;;;;;;5112018;28;20069;-50
2022/07/30 10:13:33;;;;;;;5.32;4.82;;;26.60;1.00;;;;;;5115482;28;20028;-51
2022/07/30 10:15:59;;;;;;;4.95;4.30;;;26.60;1.00;;;;;;5114592;28;20016;-48
2022/07/30 10:18:26;;;;;;;5.47;4.82;;;26.60;1.00;;;;;;5115176;28;20417;-47
2022/07/30 10:20:52;;;;;;;5.40;4.90;;;26.70;1.00;;;;;;5114439;28;20102;-48
2022/07/30 10:23:18;;;;;;;5.75;5.13;;;26.70;1.00;;;;;;5115003;28;20020;-49
2022/07/30 10:25:44;;;;;;;4.80;3.90;;;26.80;1.00;;;;;;5114436;28;20054;-48
2022/07/30 10:28:10;;;;;;;4.40;4.03;;;26.90;1.00;;;;;;5115436;28;20059;-49
2022/07/30 10:30:36;;;;;;;5.22;4.28;;;27.10;1.00;;;;;;5113698;28;20476;-49
2022/07/30 10:33:02;;;;;;;5.88;5.38;;;27.10;1.00;;;;;;5114898;28;20035;-48
2022/07/30 10:35:28;;;;;;;10.57;9.52;;;27.10;1.00;;;;;;5114132;28;20081;-49
2022/07/30 10:38:22;;;;;;;7.13;5.15;;;27.20;1.00;;;;;;5105800;28;20024;-50
2022/07/30 10:41:04;;;;;;;7.13;6.43;;;27.20;1.00;;;;;;5106146;28;20034;-51
2022/07/30 10:43:51;;;;;;;7.65;7.05;;;27.30;1.00;;;;;;5112919;28;20058;-53
2022/07/30 10:46:35;;;;;;;7.95;7.05;;;27.30;1.00;;;;;;5114025;28;20016;-51
2022/07/30 10:49:27;;;;;;;7.13;6.43;;;27.40;1.00;;;;;;5114439;28;20043;-48
2022/07/30 10:51:53;;;;;;;8.00;7.05;;;27.40;1.00;;;;;;5110235;28;20128;-49
2022/07/30 10:54:39;;;;;;;6.00;5.50;;;27.40;1.00;;;;;;5112920;28;20039;-50
2022/07/30 10:57:19;;;;;;;7.07;6.47;;;27.50;1.00;;;;;;5110283;28;20042;-48
2022/07/30 10:59:54;;;;;;;7.90;7.20;;;27.50;1.00;;;;;;5094646;28;20595;-48
2022/07/30 11:02:21;;;;;;;5.97;5.40;;;27.60;1.00;;;;;;5114557;28;20042;-50
2022/07/30 11:04:47;;;;;;;5.65;4.90;;;27.70;1.00;;;;;;5112365;28;20027;-49
2022/07/30 11:07:31;;;;;;;5.95;5.32;;;27.80;1.00;;;;;;5114222;28;20103;-49
2022/07/30 11:09:59;;;;;;;7.57;6.85;;;27.80;1.00;;;;;;5112652;28;20108;-47
2022/07/30 11:12:44;;;;;;;8.90;5.45;;;27.90;1.00;;;;;;5114313;28;20393;-49
2022/07/30 11:15:14;;;;;;;6.45;5.85;;;27.90;1.00;;;;;;5100561;28;20391;-47
2022/07/30 11:18:04;;;;;;;7.35;6.65;;;28.00;1.00;;;;;;5112913;28;20028;-47
2022/07/30 11:20:31;;;;;;;6.72;6.10;;;28.30;1.00;;;;;;5100207;28;20035;-49
2022/07/30 11:23:18;;;;;;;7.65;6.85;;;28.30;1.00;;;;;;5108807;28;20065;-49
2022/07/30 11:25:44;;;;;;;7.70;7.10;;;28.40;1.00;;;;;;5105067;28;20024;-50
2022/07/30 11:28:33;;;;;;;5.63;5.22;;;28.40;1.00;;;;;;5112757;28;20114;-49
2022/07/30 11:30:59;;;;;;;6.50;6.07;;;28.50;1.00;;;;;;5107268;28;20012;-48
2022/07/30 11:33:25;;;;;;;7.10;6.18;;;28.70;1.00;;;;;;5105700;28;20439;-49
2022/07/30 11:36:08;;;;;;;7.05;6.43;;;28.80;1.00;;;;;;5112850;28;20050;-48
2022/07/30 11:38:51;;;;;;;6.67;6.17;;;28.80;1.00;;;;;;5113688;28;20070;-49
2022/07/30 11:41:17;;;;;;;6.68;6.07;;;29.00;1.00;;;;;;5110809;28;20118;-53
2022/07/30 11:43:42;;;;;;;6.45;5.93;;;29.10;1.00;;;;;;5094697;28;20549;-53
2022/07/30 11:46:13;;;;;;;5.78;5.28;;;29.50;1.00;;;;;;5112285;28;20024;-54
2022/07/30 11:48:41;;;;;;;5.22;4.90;;;30.00;1.00;;;;;;5094956;28;20443;-54
2022/07/30 11:51:07;;;;;;;5.78;5.15;;;30.10;1.00;;;;;;5110327;28;20032;-52
2022/07/30 11:53:33;;;;;;;4.70;4.40;;;30.30;1.00;;;;;;5098599;28;20389;-53
2022/07/30 11:56:00;;;;;;;6.65;5.40;;;30.80;1.00;;;;;;5109191;28;20085;-54
2022/07/30 11:58:38;;;;;;;4.05;3.80;;;31.60;1.00;;;;;;5099881;28;20058;-52
2022/07/30 12:01:14;;;;;;;5.43;5.10;;;32.30;1.00;;;;;;5112132;28;20024;-50
2022/07/30 12:03:44;;;;;;;5.13;4.78;;;32.40;1.00;;;;;;5112930;28;20555;-51
2022/07/30 12:06:22;;;;;;;6.65;6.07;;;32.40;1.00;;;;;;5102615;28;20024;-53
2022/07/30 12:08:50;;;;;;;4.97;4.65;;;32.70;1.00;;;;;;5099417;28;20031;-51
2022/07/30 12:11:16;;;;;;;5.20;4.90;;;33.40;1.00;;;;;;5110978;28;20027;-49
2022/07/30 12:13:43;;;;;;;5.82;5.30;;;34.40;1.00;;;;;;5112850;28;20512;-52
2022/07/30 12:16:11;;;;;;;6.43;5.78;;;35.40;1.00;;;;;;5103261;28;20473;-48
2022/07/30 12:18:37;;;;;;;5.55;5.15;;;37.40;1.00;;;;;;5110087;28;20500;-47
2022/07/30 12:21:08;;;;;;;5.32;4.97;;;39.50;1.00;;;;;;5103496;28;20500;-48
2022/07/30 12:23:34;;;;;;;5.07;4.68;;;41.40;1.00;;;;;;5098589;28;20035;-50
2022/07/30 12:26:00;;;;;;;4.72;4.45;;;42.40;1.00;;;;;;5111600;28;20023;-49
2022/07/30 12:28:31;;;;;;;4.82;4.35;;;42.70;1.00;;;;;;5112633;28;20035;-52
2022/07/30 12:30:59;;;;;;;4.57;4.28;;;43.00;1.00;;;;;;5105278;28;20068;-52
2022/07/30 12:33:25;;;;;;;4.50;4.20;;;42.40;1.00;;;;;;5104947;28;20024;-52
2022/07/30 12:35:53;;;;;;;5.15;4.75;;;40.80;1.00;;;;;;5111740;28;20499;-51
2022/07/30 12:38:20;;;;;;;5.10;4.60;;;38.90;1.00;;;;;;5100426;28;20035;-49
2022/07/30 12:40:59;;;;;;;4.35;4.05;;;38.10;1.00;;;;;;5108411;28;20026;-50
2022/07/30 12:43:53;;;;;;;4.63;4.43;;;38.30;1.00;;;;;;5112555;28;20039;-48
2022/07/30 12:46:21;;;;;;;5.05;4.70;;;37.70;1.00;;;;;;5083465;28;20019;-48
2022/07/30 12:49:01;;;;;;;5.72;5.32;;;37.70;1.00;;;;;;5112103;28;20070;-49
2022/07/30 12:51:32;;;;;;;4.55;4.35;;;37.20;1.00;;;;;;5110365;28;20027;-48
2022/07/30 12:53:58;;;;;;;4.97;4.57;;;36.60;1.00;;;;;;5111699;28;20480;-48